sensor_id;sensor_type;location;lat;lon;timestamp;temperature;humidity
19870;DHT22;10097;50.862;4.696;2022-08-19T03:34:47;18.10;99.90
19870;DHT22;10097;50.862;4.696;2022-08-19T03:37:32;18.00;99.90
19870;DHT22;10097;50.862;4.696;2022-08-19T05:25:32;17.70;99.90
19870;DHT22;10097;50.862;4.696;2022-08-19T05:27:58;17.80;99.90
19870;DHT22;10097;50.862;4.696;2022-08-19T05:30:24;17.80;99.90
19870;DHT22;10097;50.862;4.696;2022-08-19T05:32:49;17.90;99.90
19870;DHT22;10097;50.862;4.696;2022-08-19T05:35:15;17.80;99.90
19870;DHT22;10097;50.862;4.696;2022-08-19T05:37:40;17.90;99.90
19870;DHT22;10097;50.862;4.696;2022-08-19T05:40:07;18.00;99.90
19870;DHT22;10097;50.862;4.696;2022-08-19T05:42:33;18.00;99.90
19870;DHT22;10097;50.862;4.696;2022-08-19T05:44:58;18.00;99.90
19870;DHT22;10097;50.862;4.696;2022-08-19T05:47:24;17.90;99.90
19870;DHT22;10097;50.862;4.696;2022-08-19T05:49:50;17.90;99.90
19870;DHT22;10097;50.862;4.696;2022-08-19T05:52:16;17.90;99.90
19870;DHT22;10097;50.862;4.696;2022-08-19T05:54:42;17.90;99.90
19870;DHT22;10097;50.862;4.696;2022-08-19T05:57:09;18.00;99.90
19870;DHT22;10097;50.862;4.696;2022-08-19T05:59:34;18.00;99.90
19870;DHT22;10097;50.862;4.696;2022-08-19T06:02:05;18.10;99.90
19870;DHT22;10097;50.862;4.696;2022-08-19T06:04:32;18.20;99.90
19870;DHT22;10097;50.862;4.696;2022-08-19T06:07:03;18.20;99.90
19870;DHT22;10097;50.862;4.696;2022-08-19T06:13:33;18.50;99.90
19870;DHT22;10097;50.862;4.696;2022-08-19T06:15:58;18.40;99.90
19870;DHT22;10097;50.862;4.696;2022-08-19T06:18:24;18.50;99.90
19870;DHT22;10097;50.862;4.696;2022-08-19T06:20:50;18.60;99.90
19870;DHT22;10097;50.862;4.696;2022-08-19T06:30:02;19.20;99.90
19870;DHT22;10097;50.862;4.696;2022-08-19T06:32:28;19.30;99.90
19870;DHT22;10097;50.862;4.696;2022-08-19T06:34:54;19.40;99.90
19870;DHT22;10097;50.862;4.696;2022-08-19T06:44:01;19.80;99.90
19870;DHT22;10097;50.862;4.696;2022-08-19T06:46:27;19.90;99.90
19870;DHT22;10097;50.862;4.696;2022-08-19T06:48:53;19.90;99.90
19870;DHT22;10097;50.862;4.696;2022-08-19T06:51:20;19.90;99.90
19870;DHT22;10097;50.862;4.696;2022-08-19T06:53:48;19.90;99.90
19870;DHT22;10097;50.862;4.696;2022-08-19T06:56:16;19.90;99.90
19870;DHT22;10097;50.862;4.696;2022-08-19T06:58:53;20.00;99.90
19870;DHT22;10097;50.862;4.696;2022-08-19T07:04:41;20.40;99.90
19870;DHT22;10097;50.862;4.696;2022-08-19T07:10:34;20.30;99.90
19870;DHT22;10097;50.862;4.696;2022-08-19T08:29:59;22.60;99.90
19870;DHT22;10097;50.862;4.696;2022-08-19T08:32:25;22.60;99.90
19870;DHT22;10097;50.862;4.696;2022-08-19T08:34:50;22.80;99.90
19870;DHT22;10097;50.862;4.696;2022-08-19T08:37:19;23.00;99.90
19870;DHT22;10097;50.862;4.696;2022-08-19T08:39:45;23.10;99.90
19870;DHT22;10097;50.862;4.696;2022-08-19T08:42:27;22.90;99.90
19870;DHT22;10097;50.862;4.696;2022-08-19T08:44:59;22.80;99.90
19870;DHT22;10097;50.862;4.696;2022-08-19T08:47:30;22.80;99.90
19870;DHT22;10097;50.862;4.696;2022-08-19T08:50:19;22.90;99.90
19870;DHT22;10097;50.862;4.696;2022-08-19T08:52:48;23.10;99.90
19870;DHT22;10097;50.862;4.696;2022-08-19T08:55:19;23.40;99.90
19870;DHT22;10097;50.862;4.696;2022-08-19T09:00:26;23.80;99.90
19870;DHT22;10097;50.862;4.696;2022-08-19T09:02:54;23.70;99.90
19870;DHT22;10097;50.862;4.696;2022-08-19T09:05:21;23.70;99.90
19870;DHT22;10097;50.862;4.696;2022-08-19T09:10:30;23.80;99.90
19870;DHT22;10097;50.862;4.696;2022-08-19T09:16:26;24.40;99.90
19870;DHT22;10097;50.862;4.696;2022-08-19T09:19:07;24.60;99.90
19870;DHT22;10097;50.862;4.696;2022-08-19T09:21:33;24.60;99.90
19870;DHT22;10097;50.862;4.696;2022-08-19T09:24:01;24.60;99.90
19870;DHT22;10097;50.862;4.696;2022-08-19T09:26:27;24.80;99.90
19870;DHT22;10097;50.862;4.696;2022-08-19T09:28:53;25.20;99.90
19870;DHT22;10097;50.862;4.696;2022-08-19T09:31:25;25.40;99.90
19870;DHT22;10097;50.862;4.696;2022-08-19T09:33:52;25.80;99.90
19870;DHT22;10097;50.862;4.696;2022-08-19T09:36:20;25.70;99.90
19870;DHT22;10097;50.862;4.696;2022-08-19T09:38:51;26.00;99.90
19870;DHT22;10097;50.862;4.696;2022-08-19T09:41:23;26.20;99.90
19870;DHT22;10097;50.862;4.696;2022-08-19T09:43:53;26.40;99.90
19870;DHT22;10097;50.862;4.696;2022-08-19T09:46:21;26.50;99.90
19870;DHT22;10097;50.862;4.696;2022-08-19T09:48:48;26.70;99.90
19870;DHT22;10097;50.862;4.696;2022-08-19T09:51:20;26.60;99.90
19870;DHT22;10097;50.862;4.696;2022-08-19T09:53:47;26.60;99.90
19870;DHT22;10097;50.862;4.696;2022-08-19T09:56:17;26.60;99.90
19870;DHT22;10097;50.862;4.696;2022-08-19T09:58:43;26.30;99.90
19870;DHT22;10097;50.862;4.696;2022-08-19T10:01:15;26.30;99.90
19870;DHT22;10097;50.862;4.696;2022-08-19T10:03:41;26.10;99.90
19870;DHT22;10097;50.862;4.696;2022-08-19T10:06:07;25.90;99.90
19870;DHT22;10097;50.862;4.696;2022-08-19T10:08:36;25.60;99.90
19870;DHT22;10097;50.862;4.696;2022-08-19T10:11:03;25.40;99.90
19870;DHT22;10097;50.862;4.696;2022-08-19T10:13:31;25.30;99.90
19870;DHT22;10097;50.862;4.696;2022-08-19T10:16:13;25.40;99.90
19870;DHT22;10097;50.862;4.696;2022-08-19T10:18:39;25.40;99.90
19870;DHT22;10097;50.862;4.696;2022-08-19T10:21:23;25.80;99.90
19870;DHT22;10097;50.862;4.696;2022-08-19T10:23:51;25.90;99.90
19870;DHT22;10097;50.862;4.696;2022-08-19T10:26:20;25.90;99.90
19870;DHT22;10097;50.862;4.696;2022-08-19T10:28:46;26.20;99.90
19870;DHT22;10097;50.862;4.696;2022-08-19T10:31:21;26.30;99.90
19870;DHT22;10097;50.862;4.696;2022-08-19T10:33:48;26.20;99.90
19870;DHT22;10097;50.862;4.696;2022-08-19T10:36:17;26.10;99.90
19870;DHT22;10097;50.862;4.696;2022-08-19T10:38:45;26.10;99.90
19870;DHT22;10097;50.862;4.696;2022-08-19T10:41:23;26.20;99.90
19870;DHT22;10097;50.862;4.696;2022-08-19T10:44:09;26.00;99.90
19870;DHT22;10097;50.862;4.696;2022-08-19T10:46:37;26.10;99.90
19870;DHT22;10097;50.862;4.696;2022-08-19T10:49:06;26.20;99.90
19870;DHT22;10097;50.862;4.696;2022-08-19T10:51:32;26.30;99.90
19870;DHT22;10097;50.862;4.696;2022-08-19T10:54:17;26.80;99.90
19870;DHT22;10097;50.862;4.696;2022-08-19T10:56:43;27.30;99.90
19870;DHT22;10097;50.862;4.696;2022-08-19T10:59:22;27.70;99.90
19870;DHT22;10097;50.862;4.696;2022-08-19T11:01:50;27.60;99.90
19870;DHT22;10097;50.862;4.696;2022-08-19T11:04:17;27.70;99.90
19870;DHT22;10097;50.862;4.696;2022-08-19T11:06:47;27.70;99.90
19870;DHT22;10097;50.862;4.696;2022-08-19T11:09:19;27.60;99.90
19870;DHT22;10097;50.862;4.696;2022-08-19T11:11:45;27.50;99.90
19870;DHT22;10097;50.862;4.696;2022-08-19T11:14:15;27.80;99.90
19870;DHT22;10097;50.862;4.696;2022-08-19T11:16:41;28.00;99.90
19870;DHT22;10097;50.862;4.696;2022-08-19T11:19:11;27.70;99.90
19870;DHT22;10097;50.862;4.696;2022-08-19T11:21:41;27.60;99.90
19870;DHT22;10097;50.862;4.696;2022-08-19T11:24:11;27.10;99.90
19870;DHT22;10097;50.862;4.696;2022-08-19T11:26:38;26.80;99.90
19870;DHT22;10097;50.862;4.696;2022-08-19T11:29:06;26.70;99.90
19870;DHT22;10097;50.862;4.696;2022-08-19T11:31:34;26.40;99.90
19870;DHT22;10097;50.862;4.696;2022-08-19T11:34:06;26.30;99.90
19870;DHT22;10097;50.862;4.696;2022-08-19T11:36:38;26.50;99.90
19870;DHT22;10097;50.862;4.696;2022-08-19T11:39:06;26.70;99.90
19870;DHT22;10097;50.862;4.696;2022-08-19T11:41:32;26.80;99.90
19870;DHT22;10097;50.862;4.696;2022-08-19T11:43:58;26.70;99.90
19870;DHT22;10097;50.862;4.696;2022-08-19T11:46:25;26.60;99.90
19870;DHT22;10097;50.862;4.696;2022-08-19T11:48:54;26.50;99.90
19870;DHT22;10097;50.862;4.696;2022-08-19T11:54:53;26.20;99.90
19870;DHT22;10097;50.862;4.696;2022-08-19T11:57:19;26.20;99.90
19870;DHT22;10097;50.862;4.696;2022-08-19T11:59:50;26.00;99.90
19870;DHT22;10097;50.862;4.696;2022-08-19T12:02:30;26.20;99.90
19870;DHT22;10097;50.862;4.696;2022-08-19T12:05:25;26.30;99.90
19870;DHT22;10097;50.862;4.696;2022-08-19T12:07:58;26.50;99.90
19870;DHT22;10097;50.862;4.696;2022-08-19T12:17:40;25.30;99.90
19870;DHT22;10097;50.862;4.696;2022-08-19T12:39:03;27.30;99.90
19870;DHT22;10097;50.862;4.696;2022-08-19T12:41:29;27.70;99.90
19870;DHT22;10097;50.862;4.696;2022-08-19T12:43:55;28.10;99.90
19870;DHT22;10097;50.862;4.696;2022-08-19T12:46:23;28.40;99.90
19870;DHT22;10097;50.862;4.696;2022-08-19T12:48:49;28.90;99.90
19870;DHT22;10097;50.862;4.696;2022-08-19T12:51:22;28.60;99.90
19870;DHT22;10097;50.862;4.696;2022-08-19T12:53:51;28.10;99.90
19870;DHT22;10097;50.862;4.696;2022-08-19T12:56:19;28.00;99.90
19870;DHT22;10097;50.862;4.696;2022-08-19T12:59:05;28.40;99.90
19870;DHT22;10097;50.862;4.696;2022-08-19T13:02:04;28.90;99.90
19870;DHT22;10097;50.862;4.696;2022-08-19T13:04:36;29.60;99.90
19870;DHT22;10097;50.862;4.696;2022-08-19T13:07:15;30.10;99.90
19870;DHT22;10097;50.862;4.696;2022-08-19T13:09:43;30.40;99.90
19870;DHT22;10097;50.862;4.696;2022-08-19T13:12:14;30.40;99.90
19870;DHT22;10097;50.862;4.696;2022-08-19T13:14:45;30.70;99.90
19870;DHT22;10097;50.862;4.696;2022-08-19T13:17:21;31.10;99.90
19870;DHT22;10097;50.862;4.696;2022-08-19T13:20:08;31.10;99.90
19870;DHT22;10097;50.862;4.696;2022-08-19T13:22:42;30.70;99.90
19870;DHT22;10097;50.862;4.696;2022-08-19T13:25:08;30.90;99.90
19870;DHT22;10097;50.862;4.696;2022-08-19T13:27:57;31.20;99.90
19870;DHT22;10097;50.862;4.696;2022-08-19T13:30:35;31.70;99.90
19870;DHT22;10097;50.862;4.696;2022-08-19T13:33:22;32.00;99.90
19870;DHT22;10097;50.862;4.696;2022-08-19T13:36:01;31.80;99.90
19870;DHT22;10097;50.862;4.696;2022-08-19T13:38:27;31.30;99.90
19870;DHT22;10097;50.862;4.696;2022-08-19T13:41:07;31.30;99.90
19870;DHT22;10097;50.862;4.696;2022-08-19T13:43:38;31.20;99.90
19870;DHT22;10097;50.862;4.696;2022-08-19T13:46:13;31.30;99.90
19870;DHT22;10097;50.862;4.696;2022-08-19T13:48:41;31.70;99.90
19870;DHT22;10097;50.862;4.696;2022-08-19T13:51:35;31.50;99.90
19870;DHT22;10097;50.862;4.696;2022-08-19T13:54:12;31.10;99.90
19870;DHT22;10097;50.862;4.696;2022-08-19T13:56:45;30.80;99.90
19870;DHT22;10097;50.862;4.696;2022-08-19T13:59:26;30.60;99.90
19870;DHT22;10097;50.862;4.696;2022-08-19T14:01:56;30.40;99.90
19870;DHT22;10097;50.862;4.696;2022-08-19T14:04:44;30.40;99.90
19870;DHT22;10097;50.862;4.696;2022-08-19T14:07:22;30.40;99.90
19870;DHT22;10097;50.862;4.696;2022-08-19T14:09:54;30.10;99.90
19870;DHT22;10097;50.862;4.696;2022-08-19T14:12:30;29.70;99.90
19870;DHT22;10097;50.862;4.696;2022-08-19T14:15:16;29.70;99.90
19870;DHT22;10097;50.862;4.696;2022-08-19T14:17:47;29.60;99.90
19870;DHT22;10097;50.862;4.696;2022-08-19T14:20:16;29.50;99.90
19870;DHT22;10097;50.862;4.696;2022-08-19T14:22:48;29.50;99.90
19870;DHT22;10097;50.862;4.696;2022-08-19T14:25:21;29.60;99.90
19870;DHT22;10097;50.862;4.696;2022-08-19T14:27:47;29.60;99.90
19870;DHT22;10097;50.862;4.696;2022-08-19T14:30:25;29.80;99.90
19870;DHT22;10097;50.862;4.696;2022-08-19T14:33:05;29.50;99.90
19870;DHT22;10097;50.862;4.696;2022-08-19T14:35:36;29.60;99.90
19870;DHT22;10097;50.862;4.696;2022-08-19T14:38:04;30.20;99.90
19870;DHT22;10097;50.862;4.696;2022-08-19T14:40:44;30.60;99.90
19870;DHT22;10097;50.862;4.696;2022-08-19T14:43:16;30.50;99.90
19870;DHT22;10097;50.862;4.696;2022-08-19T14:45:43;30.30;99.90
19870;DHT22;10097;50.862;4.696;2022-08-19T14:48:39;29.70;99.90
19870;DHT22;10097;50.862;4.696;2022-08-19T14:51:16;29.00;99.90
19870;DHT22;10097;50.862;4.696;2022-08-19T14:54:04;28.60;99.90
19870;DHT22;10097;50.862;4.696;2022-08-19T14:56:37;28.10;99.90
19870;DHT22;10097;50.862;4.696;2022-08-19T14:59:06;27.90;99.90
19870;DHT22;10097;50.862;4.696;2022-08-19T15:01:46;27.50;99.90
19870;DHT22;10097;50.862;4.696;2022-08-19T15:04:15;26.80;99.90
19870;DHT22;10097;50.862;4.696;2022-08-19T15:06:46;26.80;99.90
19870;DHT22;10097;50.862;4.696;2022-08-19T15:09:19;26.40;99.90
19870;DHT22;10097;50.862;4.696;2022-08-19T15:11:56;25.80;99.90
19870;DHT22;10097;50.862;4.696;2022-08-19T15:14:31;25.50;99.90
19870;DHT22;10097;50.862;4.696;2022-08-19T15:17:04;25.40;99.90
19870;DHT22;10097;50.862;4.696;2022-08-19T15:19:34;25.50;99.90
19870;DHT22;10097;50.862;4.696;2022-08-19T15:22:03;25.80;99.90
19870;DHT22;10097;50.862;4.696;2022-08-19T15:27:51;26.30;99.90
19870;DHT22;10097;50.862;4.696;2022-08-19T15:30:26;26.20;99.90
19870;DHT22;10097;50.862;4.696;2022-08-19T15:32:57;25.90;99.90
19870;DHT22;10097;50.862;4.696;2022-08-19T15:35:29;25.70;99.90
19870;DHT22;10097;50.862;4.696;2022-08-19T15:37:59;25.40;99.90
19870;DHT22;10097;50.862;4.696;2022-08-19T15:40:42;25.20;99.90
19870;DHT22;10097;50.862;4.696;2022-08-19T15:43:16;25.10;99.90
19870;DHT22;10097;50.862;4.696;2022-08-19T15:45:55;24.90;99.90
19870;DHT22;10097;50.862;4.696;2022-08-19T15:48:26;24.40;99.90
19870;DHT22;10097;50.862;4.696;2022-08-19T15:50:52;23.90;99.90
19870;DHT22;10097;50.862;4.696;2022-08-19T15:53:18;23.50;99.90
19870;DHT22;10097;50.862;4.696;2022-08-19T15:55:44;23.50;99.90
19870;DHT22;10097;50.862;4.696;2022-08-19T15:58:13;23.60;99.90
19870;DHT22;10097;50.862;4.696;2022-08-19T16:01:00;23.80;99.90
19870;DHT22;10097;50.862;4.696;2022-08-19T16:03:44;24.40;99.90
19870;DHT22;10097;50.862;4.696;2022-08-19T16:06:28;25.00;99.90
19870;DHT22;10097;50.862;4.696;2022-08-19T16:08:56;25.50;99.90
19870;DHT22;10097;50.862;4.696;2022-08-19T16:11:24;25.60;99.90
19870;DHT22;10097;50.862;4.696;2022-08-19T16:13:52;25.60;99.90
19870;DHT22;10097;50.862;4.696;2022-08-19T16:16:24;25.80;99.90
19870;DHT22;10097;50.862;4.696;2022-08-19T16:18:53;26.20;99.90
19870;DHT22;10097;50.862;4.696;2022-08-19T16:21:22;26.40;99.90
19870;DHT22;10097;50.862;4.696;2022-08-19T16:23:50;26.40;99.90
19870;DHT22;10097;50.862;4.696;2022-08-19T16:26:18;26.20;99.90
19870;DHT22;10097;50.862;4.696;2022-08-19T16:28:45;26.20;99.90
19870;DHT22;10097;50.862;4.696;2022-08-19T16:31:12;26.00;99.90
19870;DHT22;10097;50.862;4.696;2022-08-19T16:33:37;26.00;99.90
19870;DHT22;10097;50.862;4.696;2022-08-19T16:36:03;25.90;99.90
19870;DHT22;10097;50.862;4.696;2022-08-19T16:38:31;25.80;99.90
19870;DHT22;10097;50.862;4.696;2022-08-19T16:40:57;25.80;99.90
19870;DHT22;10097;50.862;4.696;2022-08-19T16:43:25;25.80;99.90
19870;DHT22;10097;50.862;4.696;2022-08-19T16:45:51;25.90;99.90
19870;DHT22;10097;50.862;4.696;2022-08-19T16:48:21;25.70;99.90
19870;DHT22;10097;50.862;4.696;2022-08-19T16:50:48;25.60;99.90
19870;DHT22;10097;50.862;4.696;2022-08-19T16:53:16;25.40;99.90
19870;DHT22;10097;50.862;4.696;2022-08-19T16:55:42;25.30;99.90
19870;DHT22;10097;50.862;4.696;2022-08-19T16:58:07;25.30;99.90
19870;DHT22;10097;50.862;4.696;2022-08-19T17:00:36;25.30;99.90
19870;DHT22;10097;50.862;4.696;2022-08-19T17:03:08;25.30;99.90
19870;DHT22;10097;50.862;4.696;2022-08-19T17:05:46;25.30;99.90
19870;DHT22;10097;50.862;4.696;2022-08-19T17:08:13;25.20;99.90
19870;DHT22;10097;50.862;4.696;2022-08-19T17:10:41;25.10;99.90
19870;DHT22;10097;50.862;4.696;2022-08-19T17:13:07;25.10;99.90
19870;DHT22;10097;50.862;4.696;2022-08-19T17:15:33;25.00;99.90
19870;DHT22;10097;50.862;4.696;2022-08-19T17:18:03;25.00;99.90
19870;DHT22;10097;50.862;4.696;2022-08-19T17:20:30;25.00;99.90
19870;DHT22;10097;50.862;4.696;2022-08-19T17:22:56;24.80;99.90
19870;DHT22;10097;50.862;4.696;2022-08-19T17:25:25;24.90;99.90
19870;DHT22;10097;50.862;4.696;2022-08-19T17:27:52;24.80;99.90
19870;DHT22;10097;50.862;4.696;2022-08-19T17:30:20;24.80;99.90
19870;DHT22;10097;50.862;4.696;2022-08-19T17:32:46;24.60;99.90
19870;DHT22;10097;50.862;4.696;2022-08-19T17:35:13;24.40;99.90
19870;DHT22;10097;50.862;4.696;2022-08-19T17:37:48;24.00;99.90
19870;DHT22;10097;50.862;4.696;2022-08-19T17:40:16;23.70;99.90
19870;DHT22;10097;50.862;4.696;2022-08-19T17:42:43;23.50;99.90
19870;DHT22;10097;50.862;4.696;2022-08-19T17:45:19;23.20;99.90
19870;DHT22;10097;50.862;4.696;2022-08-19T17:47:53;23.00;99.90
19870;DHT22;10097;50.862;4.696;2022-08-19T17:50:22;22.90;99.90
19870;DHT22;10097;50.862;4.696;2022-08-19T17:52:52;22.70;99.90
19870;DHT22;10097;50.862;4.696;2022-08-19T17:55:21;22.50;99.90
19870;DHT22;10097;50.862;4.696;2022-08-19T17:57:46;22.40;99.90
19870;DHT22;10097;50.862;4.696;2022-08-19T18:00:14;22.40;99.90
19870;DHT22;10097;50.862;4.696;2022-08-19T18:02:48;22.30;99.90
19870;DHT22;10097;50.862;4.696;2022-08-19T18:05:16;22.20;99.90
19870;DHT22;10097;50.862;4.696;2022-08-19T18:07:42;22.10;99.90
19870;DHT22;10097;50.862;4.696;2022-08-19T18:10:09;22.00;99.90
19870;DHT22;10097;50.862;4.696;2022-08-19T18:12:36;22.00;99.90
19870;DHT22;10097;50.862;4.696;2022-08-19T18:15:05;21.90;99.90
19870;DHT22;10097;50.862;4.696;2022-08-19T18:17:31;21.80;99.90
19870;DHT22;10097;50.862;4.696;2022-08-19T18:19:57;21.70;99.90
19870;DHT22;10097;50.862;4.696;2022-08-19T18:22:28;21.50;99.90
19870;DHT22;10097;50.862;4.696;2022-08-19T18:24:56;21.40;99.90
19870;DHT22;10097;50.862;4.696;2022-08-19T18:27:24;21.30;99.90
19870;DHT22;10097;50.862;4.696;2022-08-19T18:29:50;21.40;99.90
19870;DHT22;10097;50.862;4.696;2022-08-19T18:32:17;21.40;99.90
19870;DHT22;10097;50.862;4.696;2022-08-19T18:34:43;21.30;99.90
19870;DHT22;10097;50.862;4.696;2022-08-19T18:37:11;21.40;99.90
19870;DHT22;10097;50.862;4.696;2022-08-19T18:39:37;21.40;99.90
19870;DHT22;10097;50.862;4.696;2022-08-19T18:42:23;21.40;99.90
19870;DHT22;10097;50.862;4.696;2022-08-19T18:45:08;21.40;99.90
19870;DHT22;10097;50.862;4.696;2022-08-19T18:47:53;21.30;99.90
19870;DHT22;10097;50.862;4.696;2022-08-19T18:50:38;21.30;99.90
19870;DHT22;10097;50.862;4.696;2022-08-19T18:53:12;21.30;99.90
19870;DHT22;10097;50.862;4.696;2022-08-19T18:55:38;21.30;99.90
19870;DHT22;10097;50.862;4.696;2022-08-19T18:58:03;21.30;99.90
19870;DHT22;10097;50.862;4.696;2022-08-19T19:00:30;21.20;99.90
19870;DHT22;10097;50.862;4.696;2022-08-19T19:02:56;21.20;99.90
19870;DHT22;10097;50.862;4.696;2022-08-19T19:05:22;21.20;99.90
19870;DHT22;10097;50.862;4.696;2022-08-19T19:07:50;21.10;99.90
19870;DHT22;10097;50.862;4.696;2022-08-19T19:10:17;21.20;99.90
19870;DHT22;10097;50.862;4.696;2022-08-19T19:12:43;21.20;99.90
19870;DHT22;10097;50.862;4.696;2022-08-19T19:15:10;21.30;99.90
19870;DHT22;10097;50.862;4.696;2022-08-19T19:17:35;21.30;99.90
19870;DHT22;10097;50.862;4.696;2022-08-19T19:20:02;21.30;99.90
19870;DHT22;10097;50.862;4.696;2022-08-19T19:22:28;21.30;99.90
19870;DHT22;10097;50.862;4.696;2022-08-19T19:24:54;21.30;99.90
19870;DHT22;10097;50.862;4.696;2022-08-19T19:27:21;21.30;99.90
19870;DHT22;10097;50.862;4.696;2022-08-19T19:29:48;21.30;99.90
19870;DHT22;10097;50.862;4.696;2022-08-19T19:56:12;21.40;99.90
19870;DHT22;10097;50.862;4.696;2022-08-19T20:02:00;21.40;99.90
19870;DHT22;10097;50.862;4.696;2022-08-19T20:04:26;21.40;99.90
19870;DHT22;10097;50.862;4.696;2022-08-19T20:06:51;21.40;99.90
19870;DHT22;10097;50.862;4.696;2022-08-19T20:50:09;20.80;99.90
19870;DHT22;10097;50.862;4.696;2022-08-19T20:52:37;20.80;99.90
19870;DHT22;10097;50.862;4.696;2022-08-19T20:55:03;20.70;99.90
19870;DHT22;10097;50.862;4.696;2022-08-19T20:57:29;20.70;99.90
19870;DHT22;10097;50.862;4.696;2022-08-19T20:59:55;20.70;99.90
19870;DHT22;10097;50.862;4.696;2022-08-19T21:02:20;20.70;99.90
19870;DHT22;10097;50.862;4.696;2022-08-19T21:04:46;20.70;99.90
19870;DHT22;10097;50.862;4.696;2022-08-19T21:07:13;20.60;99.90
19870;DHT22;10097;50.862;4.696;2022-08-19T21:09:39;20.60;99.90
19870;DHT22;10097;50.862;4.696;2022-08-19T21:12:06;20.70;99.90
19870;DHT22;10097;50.862;4.696;2022-08-19T21:14:36;20.60;99.90
19870;DHT22;10097;50.862;4.696;2022-08-19T21:17:02;20.60;99.90
19870;DHT22;10097;50.862;4.696;2022-08-19T21:19:28;20.70;99.90
19870;DHT22;10097;50.862;4.696;2022-08-19T21:21:54;20.70;99.90
19870;DHT22;10097;50.862;4.696;2022-08-19T21:24:20;20.70;99.90
19870;DHT22;10097;50.862;4.696;2022-08-19T21:26:45;20.80;99.90
19870;DHT22;10097;50.862;4.696;2022-08-19T21:29:11;20.80;99.90
19870;DHT22;10097;50.862;4.696;2022-08-19T21:31:37;20.80;99.90
19870;DHT22;10097;50.862;4.696;2022-08-19T21:34:02;20.90;99.90
19870;DHT22;10097;50.862;4.696;2022-08-19T21:36:29;20.90;99.90
19870;DHT22;10097;50.862;4.696;2022-08-19T21:38:55;20.90;99.90
19870;DHT22;10097;50.862;4.696;2022-08-19T21:41:20;20.90;99.90
19870;DHT22;10097;50.862;4.696;2022-08-19T21:43:46;20.90;99.90
19870;DHT22;10097;50.862;4.696;2022-08-19T21:46:12;20.90;99.90
19870;DHT22;10097;50.862;4.696;2022-08-19T21:48:38;20.80;99.90
19870;DHT22;10097;50.862;4.696;2022-08-19T21:51:03;20.80;99.90
19870;DHT22;10097;50.862;4.696;2022-08-19T21:53:29;20.80;99.90
19870;DHT22;10097;50.862;4.696;2022-08-19T21:55:56;20.80;99.90
19870;DHT22;10097;50.862;4.696;2022-08-19T21:58:21;20.80;99.90
19870;DHT22;10097;50.862;4.696;2022-08-19T22:00:47;20.80;99.90
19870;DHT22;10097;50.862;4.696;2022-08-19T22:03:16;20.90;99.90
19870;DHT22;10097;50.862;4.696;2022-08-19T22:05:42;20.90;99.90
19870;DHT22;10097;50.862;4.696;2022-08-19T22:08:08;20.90;99.90
19870;DHT22;10097;50.862;4.696;2022-08-19T22:10:34;20.90;99.90
19870;DHT22;10097;50.862;4.696;2022-08-19T22:13:00;20.90;99.90
19870;DHT22;10097;50.862;4.696;2022-08-19T22:15:26;21.00;99.90
19870;DHT22;10097;50.862;4.696;2022-08-19T22:17:53;20.90;99.90
19870;DHT22;10097;50.862;4.696;2022-08-19T22:20:22;20.90;99.90
19870;DHT22;10097;50.862;4.696;2022-08-19T22:22:52;21.00;99.90
19870;DHT22;10097;50.862;4.696;2022-08-19T22:25:24;20.90;99.90
19870;DHT22;10097;50.862;4.696;2022-08-19T22:27:50;21.00;99.90
19870;DHT22;10097;50.862;4.696;2022-08-19T22:30:18;21.10;99.90
19870;DHT22;10097;50.862;4.696;2022-08-19T22:32:46;21.00;99.90
19870;DHT22;10097;50.862;4.696;2022-08-19T22:35:15;21.10;99.90
19870;DHT22;10097;50.862;4.696;2022-08-19T22:37:41;21.00;99.90
19870;DHT22;10097;50.862;4.696;2022-08-19T22:40:09;21.00;99.90
19870;DHT22;10097;50.862;4.696;2022-08-19T22:42:35;20.90;99.90
19870;DHT22;10097;50.862;4.696;2022-08-19T22:45:02;20.90;99.90
19870;DHT22;10097;50.862;4.696;2022-08-19T22:47:28;20.90;99.90
19870;DHT22;10097;50.862;4.696;2022-08-19T22:49:53;20.80;99.90
19870;DHT22;10097;50.862;4.696;2022-08-19T22:52:19;20.90;99.90
19870;DHT22;10097;50.862;4.696;2022-08-19T22:54:50;20.70;99.90
19870;DHT22;10097;50.862;4.696;2022-08-19T22:57:17;20.60;99.90
19870;DHT22;10097;50.862;4.696;2022-08-19T22:59:47;20.60;99.90
19870;DHT22;10097;50.862;4.696;2022-08-19T23:02:22;20.40;99.90
19870;DHT22;10097;50.862;4.696;2022-08-19T23:04:49;20.40;99.90
19870;DHT22;10097;50.862;4.696;2022-08-19T23:07:16;20.50;99.90
19870;DHT22;10097;50.862;4.696;2022-08-19T23:09:42;20.40;99.90
19870;DHT22;10097;50.862;4.696;2022-08-19T23:12:08;20.50;99.90
19870;DHT22;10097;50.862;4.696;2022-08-19T23:14:33;20.50;99.90
19870;DHT22;10097;50.862;4.696;2022-08-19T23:17:02;20.60;99.90
19870;DHT22;10097;50.862;4.696;2022-08-19T23:19:28;20.70;99.90
19870;DHT22;10097;50.862;4.696;2022-08-19T23:21:54;20.70;99.90
19870;DHT22;10097;50.862;4.696;2022-08-19T23:24:20;20.70;99.90
19870;DHT22;10097;50.862;4.696;2022-08-19T23:26:46;20.70;99.90
19870;DHT22;10097;50.862;4.696;2022-08-19T23:29:50;20.80;99.90
19870;DHT22;10097;50.862;4.696;2022-08-19T23:32:34;20.70;99.90
19870;DHT22;10097;50.862;4.696;2022-08-19T23:35:00;20.60;99.90
19870;DHT22;10097;50.862;4.696;2022-08-19T23:37:26;20.50;99.90
19870;DHT22;10097;50.862;4.696;2022-08-19T23:39:51;20.40;99.90
19870;DHT22;10097;50.862;4.696;2022-08-19T23:42:17;20.40;99.90
19870;DHT22;10097;50.862;4.696;2022-08-19T23:44:45;20.30;99.90
19870;DHT22;10097;50.862;4.696;2022-08-19T23:47:11;20.30;99.90
19870;DHT22;10097;50.862;4.696;2022-08-19T23:49:36;20.20;99.90
19870;DHT22;10097;50.862;4.696;2022-08-19T23:52:02;20.10;99.90
19870;DHT22;10097;50.862;4.696;2022-08-19T23:54:28;20.20;99.90
19870;DHT22;10097;50.862;4.696;2022-08-19T23:56:53;20.20;99.90
19870;DHT22;10097;50.862;4.696;2022-08-19T23:59:19;20.30;99.90
